Time;durP1;ratioP1;P1;durP2;ratioP2;P2;SDS_P1;SDS_P2;PMS_P1;PMS_P2;Temp;Humidity;BMP_temperature;BMP_pressure;BME280_temperature;BME280_humidity;BME280_pressure;Samples;Min_cycle;Max_cycle;Signal;HPM_P1;HPM_P2
2021/08/03 00:02:10;;;;;;;1.30;0.70;;;22.00;93.30;;;;;;4931053;29;20484;-82
2021/08/03 00:04:45;;;;;;;1.75;0.90;;;22.00;93.30;;;;;;4930800;29;20027;-79
2021/08/03 00:07:11;;;;;;;;;;;22.00;93.40;;;;;;4930020;29;20062;-80
2021/08/03 00:09:39;;;;;;;2.50;0.80;;;22.00;93.30;;;;;;4930778;29;19907;-78
2021/08/03 00:12:14;;;;;;;2.42;0.98;;;22.00;93.40;;;;;;4930885;29;20039;-77
2021/08/03 00:14:48;;;;;;;2.92;0.80;;;22.00;93.60;;;;;;4930769;29;20102;-85
2021/08/03 00:17:16;;;;;;;2.08;0.90;;;22.00;93.60;;;;;;4931239;29;20113;-85
2021/08/03 00:19:44;;;;;;;1.92;0.90;;;22.00;93.80;;;;;;4931132;29;20024;-87
2021/08/03 00:22:11;;;;;;;2.30;0.95;;;22.00;93.90;;;;;;4930940;29;20512;-83
2021/08/03 00:24:37;;;;;;;1.73;0.82;;;22.00;94.00;;;;;;4930654;28;20032;-83
2021/08/03 00:27:06;;;;;;;2.08;1.20;;;22.00;94.40;;;;;;4930918;29;20035;-85
2021/08/03 00:29:32;;;;;;;3.95;1.10;;;22.00;94.20;;;;;;4930520;29;20020;-85
2021/08/03 00:31:59;;;;;;;2.88;1.00;;;22.00;94.20;;;;;;4930802;29;20094;-86
2021/08/03 00:34:24;;;;;;;3.63;1.10;;;22.00;94.30;;;;;;4930362;29;20472;-86
2021/08/03 00:36:50;;;;;;;2.58;0.90;;;22.00;94.30;;;;;;4930559;28;20074;-82
2021/08/03 00:39:16;;;;;;;1.50;0.80;;;22.00;94.30;;;;;;4930424;29;20488;-78
2021/08/03 00:41:52;;;;;;;3.28;1.08;;;22.00;94.30;;;;;;4930881;29;20035;-82
2021/08/03 00:44:17;;;;;;;2.75;0.90;;;22.00;94.30;;;;;;4930530;29;20075;-83
2021/08/03 00:46:44;;;;;;;1.45;0.70;;;22.00;94.30;;;;;;4933722;28;20051;-84
2021/08/03 00:49:10;;;;;;;1.58;0.82;;;22.00;94.30;;;;;;4933949;29;20454;-82
2021/08/03 00:51:37;;;;;;;2.45;1.00;;;22.00;94.30;;;;;;4933504;29;20039;-80
2021/08/03 00:54:03;;;;;;;2.80;1.15;;;22.00;94.40;;;;;;4933863;29;20115;-85
2021/08/03 00:56:30;;;;;;;4.85;0.90;;;22.00;94.40;;;;;;4933648;29;20428;-83
2021/08/03 00:58:56;;;;;;;1.05;0.70;;;21.90;94.30;;;;;;4933674;28;20039;-80
2021/08/03 01:01:21;;;;;;;2.20;0.95;;;21.90;94.30;;;;;;4933291;29;20043;-82
2021/08/03 01:03:47;;;;;;;1.20;0.65;;;21.90;94.30;;;;;;4933642;28;20028;-84
2021/08/03 01:06:25;;;;;;;2.88;1.10;;;21.90;94.30;;;;;;4933882;29;20034;-85
2021/08/03 01:09:15;;;;;;;3.17;1.10;;;21.90;94.20;;;;;;4933489;29;20129;-84
2021/08/03 01:12:15;;;;;;;2.25;0.90;;;21.90;94.20;;;;;;4933760;29;20032;-84
2021/08/03 01:15:09;;;;;;;1.58;0.80;;;21.90;94.10;;;;;;4933658;29;20028;-83
2021/08/03 01:17:47;;;;;;;2.63;1.25;;;21.90;94.10;;;;;;4932959;29;20043;-83
2021/08/03 01:20:54;;;;;;;1.10;0.70;;;21.90;94.10;;;;;;4933661;29;20047;-84
2021/08/03 01:23:46;;;;;;;2.20;1.00;;;21.90;94.10;;;;;;4911401;29;20569;-84
2021/08/03 01:26:23;;;;;;;1.75;0.80;;;21.90;94.10;;;;;;4933669;29;20094;-81
2021/08/03 01:28:58;;;;;;;1.73;1.20;;;21.90;94.00;;;;;;4932901;29;20044;-83
2021/08/03 01:31:29;;;;;;;2.67;1.30;;;21.90;94.10;;;;;;4932942;29;20036;-79
2021/08/03 01:34:05;;;;;;;1.75;0.90;;;21.90;93.90;;;;;;4933047;29;20093;-84
2021/08/03 01:36:34;;;;;;;;;;;21.90;93.90;;;;;;4933480;29;20031;-84
2021/08/03 01:38:59;;;;;;;2.00;0.93;;;21.80;93.90;;;;;;4932842;28;19913;-84
2021/08/03 01:41:26;;;;;;;1.52;0.90;;;21.80;93.70;;;;;;4932667;29;20031;-84
2021/08/03 01:43:54;;;;;;;1.60;1.00;;;21.80;93.80;;;;;;4931627;28;20032;-84
2021/08/03 01:46:22;;;;;;;1.80;0.90;;;21.80;93.80;;;;;;4931254;29;20408;-83
2021/08/03 01:48:49;;;;;;;1.17;0.82;;;21.80;93.80;;;;;;4932620;28;20389;-82
2021/08/03 01:51:15;;;;;;;1.80;0.95;;;21.80;93.80;;;;;;4931644;28;20048;-77
2021/08/03 01:53:44;;;;;;;1.50;1.05;;;21.80;93.70;;;;;;4933091;29;20032;-83
2021/08/03 01:56:10;;;;;;;2.10;0.70;;;21.80;93.70;;;;;;4931741;28;20024;-81
2021/08/03 01:58:39;;;;;;;2.65;1.17;;;21.80;93.70;;;;;;4932569;29;20173;-83
2021/08/03 02:01:09;;;;;;;2.25;1.15;;;21.80;93.70;;;;;;4932701;29;20044;-81
2021/08/03 02:03:35;;;;;;;1.67;1.00;;;21.80;93.70;;;;;;4932332;29;20309;-81
2021/08/03 02:06:03;;;;;;;1.83;0.80;;;21.80;93.60;;;;;;4932623;29;20043;-83
2021/08/03 02:08:29;;;;;;;1.65;0.90;;;21.70;93.50;;;;;;4932227;29;20035;-82
2021/08/03 02:10:56;;;;;;;2.92;1.08;;;21.70;93.50;;;;;;4932661;29;20032;-82
2021/08/03 02:13:23;;;;;;;1.85;0.93;;;21.70;93.50;;;;;;4932391;29;20055;-81
2021/08/03 02:15:49;;;;;;;1.33;0.70;;;21.70;93.40;;;;;;4932583;29;20508;-83
2021/08/03 02:18:15;;;;;;;1.67;0.80;;;21.70;93.40;;;;;;4932870;29;20023;-82
2021/08/03 02:20:44;;;;;;;1.58;1.00;;;21.80;93.40;;;;;;4932338;29;20038;-81
2021/08/03 02:23:09;;;;;;;1.40;0.70;;;21.80;93.40;;;;;;4932505;28;20024;-83
2021/08/03 02:25:35;;;;;;;1.65;1.00;;;21.70;93.30;;;;;;4931815;28;20066;-83
2021/08/03 02:28:02;;;;;;;4.82;1.02;;;21.70;93.30;;;;;;4932351;29;20035;-83
2021/08/03 02:30:29;;;;;;;1.52;0.80;;;21.70;93.20;;;;;;4932200;28;20042;-81
2021/08/03 02:33:06;;;;;;;2.33;0.88;;;21.70;93.20;;;;;;4932128;29;20046;-85
2021/08/03 02:36:06;;;;;;;2.13;0.98;;;21.70;93.20;;;;;;4932034;29;20055;-84
2021/08/03 02:38:36;;;;;;;2.78;1.10;;;21.70;93.20;;;;;;4924995;28;20039;-78
2021/08/03 02:41:02;;;;;;;3.00;1.17;;;21.70;93.20;;;;;;4931969;28;20138;-81
2021/08/03 02:43:29;;;;;;;3.90;1.05;;;21.70;93.10;;;;;;4931868;29;20554;-84
2021/08/03 02:46:02;;;;;;;1.52;0.77;;;21.70;93.10;;;;;;4931776;29;20036;-84
2021/08/03 02:48:29;;;;;;;3.17;0.70;;;21.70;93.10;;;;;;4931839;29;20501;-82
2021/08/03 02:50:56;;;;;;;3.10;1.10;;;21.70;93.10;;;;;;4931854;29;20032;-81
2021/08/03 02:53:33;;;;;;;1.83;0.85;;;21.70;93.00;;;;;;4931589;29;20043;-85
2021/08/03 02:56:02;;;;;;;2.15;0.93;;;21.70;93.00;;;;;;4931769;29;20032;-82
2021/08/03 02:58:44;;;;;;;2.33;0.90;;;21.70;93.00;;;;;;4931725;29;20059;-80
2021/08/03 03:01:12;;;;;;;2.60;0.85;;;21.70;93.00;;;;;;4932051;29;20058;-83
2021/08/03 03:03:45;;;;;;;1.15;0.70;;;21.70;92.90;;;;;;4931337;28;20114;-84
2021/08/03 03:06:14;;;;;;;2.40;0.95;;;21.60;92.90;;;;;;4931919;29;20028;-76
2021/08/03 03:08:43;;;;;;;3.28;0.80;;;21.60;92.90;;;;;;4931431;29;20028;-76
2021/08/03 03:11:10;;;;;;;2.92;0.95;;;21.60;92.90;;;;;;4931791;29;20102;-75
2021/08/03 03:13:45;;;;;;;3.70;1.02;;;21.60;92.90;;;;;;4931392;29;20039;-77
2021/08/03 03:16:13;;;;;;;2.13;0.88;;;21.60;92.80;;;;;;4932041;29;20579;-76
2021/08/03 03:18:39;;;;;;;2.20;0.98;;;21.60;92.80;;;;;;4931155;29;20032;-80
2021/08/03 03:21:05;;;;;;;2.78;0.77;;;21.60;93.10;;;;;;4931319;29;20035;-82
2021/08/03 03:23:35;;;;;;;1.45;0.75;;;21.60;92.80;;;;;;4931030;29;20038;-82
2021/08/03 03:26:03;;;;;;;1.35;0.82;;;21.60;92.70;;;;;;4931574;29;20123;-83
2021/08/03 03:28:31;;;;;;;2.08;0.93;;;21.60;92.70;;;;;;4931153;28;20042;-82
2021/08/03 03:30:58;;;;;;;1.35;0.73;;;21.60;92.70;;;;;;4931257;28;20012;-83
2021/08/03 03:33:24;;;;;;;1.95;1.00;;;21.60;92.60;;;;;;4930962;29;20027;-85
2021/08/03 03:35:53;;;;;;;2.33;0.80;;;21.60;92.70;;;;;;4931395;28;20028;-84
2021/08/03 03:38:24;;;;;;;2.10;1.00;;;21.60;92.70;;;;;;4931036;29;20036;-84
2021/08/03 03:40:51;;;;;;;2.13;0.90;;;21.60;92.60;;;;;;4931331;29;20078;-83
2021/08/03 03:43:19;;;;;;;1.90;0.90;;;21.60;92.60;;;;;;4930927;29;20488;-85
2021/08/03 03:45:48;;;;;;;1.63;0.85;;;21.60;92.60;;;;;;4931082;29;20043;-83
2021/08/03 03:48:18;;;;;;;2.30;0.82;;;21.50;92.50;;;;;;4931157;28;20047;-85
2021/08/03 03:50:47;;;;;;;1.90;1.10;;;21.60;92.60;;;;;;4931497;29;20031;-82
2021/08/03 03:53:22;;;;;;;2.90;0.98;;;21.60;92.50;;;;;;4931456;29;20074;-84
2021/08/03 03:55:57;;;;;;;3.03;1.00;;;21.50;92.40;;;;;;4931298;28;20499;-85
2021/08/03 03:58:24;;;;;;;1.75;0.88;;;21.60;92.50;;;;;;4931072;29;20055;-85
2021/08/03 04:00:51;;;;;;;3.17;1.00;;;21.50;92.40;;;;;;4931106;29;20174;-84
2021/08/03 04:03:22;;;;;;;1.70;0.70;;;21.50;92.40;;;;;;4930857;29;20050;-83
2021/08/03 04:05:49;;;;;;;1.95;0.90;;;21.50;92.40;;;;;;4930968;28;20024;-83
2021/08/03 04:08:15;;;;;;;3.72;1.13;;;21.50;92.40;;;;;;4931070;29;20032;-78
2021/08/03 04:10:41;;;;;;;1.52;0.90;;;21.50;92.30;;;;;;4931399;29;20039;-83
2021/08/03 04:13:08;;;;;;;2.08;1.10;;;21.50;92.40;;;;;;4930856;28;20089;-83
2021/08/03 04:15:35;;;;;;;1.63;0.90;;;21.50;92.40;;;;;;4930624;29;20480;-83
2021/08/03 04:18:01;;;;;;;2.67;1.13;;;21.50;92.30;;;;;;4930975;29;20098;-83
2021/08/03 04:20:27;;;;;;;3.33;0.90;;;21.50;92.60;;;;;;4932503;28;20070;-81
2021/08/03 04:22:52;;;;;;;2.88;0.80;;;21.50;92.40;;;;;;4934013;28;20036;-83
2021/08/03 04:25:18;;;;;;;1.67;0.82;;;21.50;92.70;;;;;;4934035;29;20434;-83
2021/08/03 04:27:44;;;;;;;1.58;0.82;;;21.50;92.30;;;;;;4934373;29;20502;-82
2021/08/03 04:30:13;;;;;;;1.40;0.90;;;21.50;92.30;;;;;;4934189;29;20483;-83
2021/08/03 04:32:39;;;;;;;3.42;1.00;;;21.50;92.20;;;;;;4933793;28;20032;-83
2021/08/03 04:35:06;;;;;;;2.25;0.80;;;21.50;92.30;;;;;;4933956;28;20538;-82
2021/08/03 04:37:44;;;;;;;2.72;0.80;;;21.50;92.20;;;;;;4933309;29;20047;-81
2021/08/03 04:40:12;;;;;;;1.88;0.95;;;21.50;92.20;;;;;;4934024;29;20023;-80
2021/08/03 04:42:37;;;;;;;4.28;1.38;;;21.40;92.20;;;;;;4933396;29;20086;-83
2021/08/03 04:45:05;;;;;;;1.67;1.00;;;21.40;92.10;;;;;;4933720;29;20051;-82
2021/08/03 04:47:31;;;;;;;2.45;1.10;;;21.50;92.20;;;;;;4933465;29;20062;-83
2021/08/03 04:49:56;;;;;;;1.77;0.98;;;21.40;92.10;;;;;;4933662;29;20039;-80
2021/08/03 04:52:22;;;;;;;2.67;0.80;;;21.50;92.10;;;;;;4933362;29;20515;-81
2021/08/03 04:54:47;;;;;;;2.47;0.90;;;21.50;92.10;;;;;;4933442;29;20488;-82
2021/08/03 04:57:13;;;;;;;4.43;0.93;;;21.40;92.10;;;;;;4933842;29;20028;-82
2021/08/03 04:59:39;;;;;;;3.00;0.88;;;21.40;92.10;;;;;;4933464;29;20024;-82
2021/08/03 05:02:04;;;;;;;1.83;0.73;;;21.40;92.00;;;;;;4933100;29;20465;-81
2021/08/03 05:04:33;;;;;;;2.38;1.08;;;21.40;92.10;;;;;;4933154;29;20034;-80
2021/08/03 05:07:04;;;;;;;2.13;0.95;;;21.40;92.00;;;;;;4933328;29;20472;-82
2021/08/03 05:09:30;;;;;;;1.35;0.88;;;21.40;92.00;;;;;;4933350;29;20055;-82
2021/08/03 05:11:55;;;;;;;3.03;1.33;;;21.40;92.00;;;;;;4933448;29;20517;-81
2021/08/03 05:14:21;;;;;;;3.60;0.85;;;21.40;92.00;;;;;;4933109;29;20020;-82
2021/08/03 05:16:47;;;;;;;0.93;0.60;;;21.40;92.00;;;;;;4933358;29;20071;-83
2021/08/03 05:19:12;;;;;;;4.00;0.80;;;21.40;91.90;;;;;;4933642;28;20093;-82
2021/08/03 05:21:38;;;;;;;3.75;0.95;;;21.40;91.90;;;;;;4933000;29;20031;-83
2021/08/03 05:24:04;;;;;;;1.10;0.70;;;21.40;91.90;;;;;;4933436;29;20442;-81
2021/08/03 05:26:30;;;;;;;1.58;0.70;;;21.40;91.90;;;;;;4932950;29;20089;-83
2021/08/03 05:28:55;;;;;;;1.73;1.08;;;21.30;91.90;;;;;;4933403;29;20023;-81
2021/08/03 05:31:21;;;;;;;5.10;1.05;;;21.40;91.90;;;;;;4932760;29;20027;-83
2021/08/03 05:33:46;;;;;;;1.98;1.20;;;21.30;91.90;;;;;;4931944;29;20036;-82
2021/08/03 05:36:13;;;;;;;4.05;0.90;;;21.40;91.90;;;;;;4931907;29;20031;-82
2021/08/03 05:38:38;;;;;;;1.92;0.90;;;21.40;91.90;;;;;;4931594;29;20027;-80
2021/08/03 05:41:04;;;;;;;3.20;1.38;;;21.30;91.90;;;;;;4933019;29;20386;-81
2021/08/03 05:43:30;;;;;;;1.45;0.70;;;21.40;91.90;;;;;;4932536;29;20031;-82
2021/08/03 05:45:55;;;;;;;1.67;0.77;;;21.30;91.90;;;;;;4932875;29;20032;-82
2021/08/03 05:48:21;;;;;;;3.15;1.10;;;21.30;91.90;;;;;;4932684;28;20047;-81
2021/08/03 05:50:47;;;;;;;2.20;1.10;;;21.30;91.90;;;;;;4933055;29;20028;-78
2021/08/03 05:53:12;;;;;;;5.45;1.10;;;21.30;91.80;;;;;;4933328;29;20058;-80
2021/08/03 05:55:38;;;;;;;1.33;0.70;;;21.30;91.80;;;;;;4932607;29;20031;-81
2021/08/03 05:58:03;;;;;;;1.90;0.85;;;21.30;91.80;;;;;;4931104;29;20036;-77
2021/08/03 06:00:29;;;;;;;2.75;1.15;;;21.30;91.80;;;;;;4932472;29;20103;-77
2021/08/03 06:02:55;;;;;;;2.03;1.00;;;21.30;91.80;;;;;;4932495;28;20214;-77
2021/08/03 06:05:21;;;;;;;2.05;0.80;;;21.30;91.80;;;;;;4932546;28;20055;-76
2021/08/03 06:07:51;;;;;;;4.25;0.77;;;21.30;91.80;;;;;;4931194;28;20038;-77
2021/08/03 06:10:17;;;;;;;1.80;0.90;;;21.30;91.80;;;;;;4931375;29;20573;-78
2021/08/03 06:12:55;;;;;;;3.33;0.80;;;21.30;91.70;;;;;;4932964;28;20047;-77
2021/08/03 06:15:21;;;;;;;2.25;0.70;;;21.30;92.00;;;;;;4932203;29;20034;-79
2021/08/03 06:17:55;;;;;;;3.28;1.05;;;21.30;91.70;;;;;;4932353;29;20082;-76
2021/08/03 06:20:21;;;;;;;3.40;0.88;;;21.30;91.70;;;;;;4932381;29;20040;-80
2021/08/03 06:22:47;;;;;;;3.33;1.15;;;21.30;91.70;;;;;;4932494;29;20050;-76
2021/08/03 06:25:15;;;;;;;1.70;0.88;;;21.30;91.70;;;;;;4932794;28;20031;-84
2021/08/03 06:27:43;;;;;;;1.65;0.70;;;21.30;91.70;;;;;;4932740;29;20036;-84
2021/08/03 06:30:09;;;;;;;1.38;0.90;;;21.30;91.70;;;;;;4932429;29;20020;-83
2021/08/03 06:32:34;;;;;;;2.35;1.00;;;21.30;91.70;;;;;;4932003;29;20379;-83
2021/08/03 06:35:01;;;;;;;1.08;0.85;;;21.30;91.60;;;;;;4932415;29;20480;-84
2021/08/03 06:37:27;;;;;;;1.60;0.90;;;21.30;91.60;;;;;;4930716;28;20035;-83
2021/08/03 06:39:53;;;;;;;2.03;0.90;;;21.30;91.60;;;;;;4932170;28;20388;-85
2021/08/03 06:42:40;;;;;;;3.78;0.75;;;21.30;91.60;;;;;;4930856;29;20042;-83
2021/08/03 06:45:09;;;;;;;1.98;0.75;;;21.30;91.60;;;;;;4912895;28;20029;-85
2021/08/03 06:48:04;;;;;;;1.60;0.90;;;21.30;91.50;;;;;;4912804;29;20043;-84
2021/08/03 06:50:35;;;;;;;2.50;1.08;;;21.30;91.60;;;;;;4912348;29;20078;-85
2021/08/03 06:53:04;;;;;;;3.40;1.00;;;21.30;91.60;;;;;;4912781;29;20111;-84
2021/08/03 06:55:32;;;;;;;2.08;1.00;;;21.30;91.50;;;;;;4911449;29;20029;-84
2021/08/03 06:58:02;;;;;;;3.60;0.93;;;21.30;91.50;;;;;;4924402;29;20480;-85
2021/08/03 07:00:35;;;;;;;2.80;0.82;;;21.30;91.50;;;;;;4931145;29;20046;-80
2021/08/03 07:03:01;;;;;;;4.05;0.90;;;21.30;91.50;;;;;;4931704;29;20036;-81
2021/08/03 07:05:29;;;;;;;3.20;1.00;;;21.30;91.50;;;;;;4931117;28;20030;-80
2021/08/03 07:07:58;;;;;;;2.63;1.00;;;21.30;91.50;;;;;;4931484;28;20031;-78
2021/08/03 07:10:24;;;;;;;2.67;1.23;;;21.30;91.50;;;;;;4931425;28;20032;-78
2021/08/03 07:12:53;;;;;;;3.50;1.10;;;21.20;91.50;;;;;;4931840;29;20131;-78
2021/08/03 07:15:20;;;;;;;5.13;1.30;;;21.30;91.50;;;;;;4930261;29;20434;-78
2021/08/03 07:17:47;;;;;;;3.60;0.90;;;21.30;91.50;;;;;;4931625;29;20043;-75
2021/08/03 07:20:15;;;;;;;2.50;1.05;;;21.30;91.50;;;;;;4931917;29;20488;-74
2021/08/03 07:22:41;;;;;;;3.33;1.17;;;21.20;91.50;;;;;;4931809;29;20126;-76
2021/08/03 07:25:08;;;;;;;5.22;1.30;;;21.20;91.50;;;;;;4929727;28;20031;-82
2021/08/03 07:27:34;;;;;;;2.58;1.00;;;21.20;91.50;;;;;;4931146;28;20030;-77
2021/08/03 07:30:00;;;;;;;5.65;1.20;;;21.30;91.50;;;;;;4930275;29;20036;-85
2021/08/03 07:32:26;;;;;;;2.92;1.10;;;21.30;91.60;;;;;;4930979;29;20027;-86
2021/08/03 07:34:51;;;;;;;2.95;1.27;;;21.30;91.70;;;;;;4930971;28;20028;-87
2021/08/03 07:37:18;;;;;;;5.03;2.15;;;21.30;91.70;;;;;;4930777;29;20062;-84
2021/08/03 07:39:43;;;;;;;4.43;2.85;;;21.30;91.80;;;;;;4931640;29;20024;-88
2021/08/03 07:42:09;;;;;;;11.63;4.38;;;21.30;91.90;;;;;;4931065;29;20046;-88
2021/08/03 07:44:35;;;;;;;8.18;3.50;;;21.30;92.00;;;;;;4929913;29;20541;-85
2021/08/03 07:47:02;;;;;;;13.82;3.70;;;21.40;92.10;;;;;;4931341;29;20032;-83
2021/08/03 07:49:27;;;;;;;10.85;3.83;;;21.40;92.10;;;;;;4929593;28;20149;-85
2021/08/03 07:51:53;;;;;;;9.77;4.72;;;21.40;92.10;;;;;;4930102;29;20511;-84
2021/08/03 07:54:19;;;;;;;8.27;3.78;;;21.40;92.20;;;;;;4932120;29;20024;-82
2021/08/03 07:56:45;;;;;;;13.90;5.20;;;21.40;92.10;;;;;;4934620;29;20422;-85
2021/08/03 07:59:11;;;;;;;7.65;3.80;;;21.40;92.50;;;;;;4934715;29;20046;-84
2021/08/03 08:01:37;;;;;;;11.63;5.32;;;21.30;92.50;;;;;;4933986;29;20031;-85
2021/08/03 08:04:03;;;;;;;12.93;4.22;;;21.30;92.70;;;;;;4933895;28;20530;-87
2021/08/03 08:06:29;;;;;;;9.05;4.55;;;21.30;92.70;;;;;;4934225;29;20040;-85
2021/08/03 08:08:54;;;;;;;8.75;3.45;;;21.30;92.60;;;;;;4933149;29;20035;-86
2021/08/03 08:11:20;;;;;;;8.50;3.95;;;21.40;92.80;;;;;;4934252;29;20020;-86
2021/08/03 08:13:46;;;;;;;8.70;4.40;;;21.40;92.70;;;;;;4934446;29;20040;-84
2021/08/03 08:16:11;;;;;;;8.50;4.60;;;21.30;92.60;;;;;;4934537;28;20034;-84
2021/08/03 08:18:37;;;;;;;12.23;4.15;;;21.30;92.60;;;;;;4934060;28;20034;-85
2021/08/03 08:21:03;;;;;;;6.50;3.13;;;21.30;92.90;;;;;;4934144;29;20036;-81
2021/08/03 08:23:29;;;;;;;10.75;3.95;;;21.30;93.10;;;;;;4933652;28;20024;-83
2021/08/03 08:25:58;;;;;;;13.98;5.25;;;21.30;93.20;;;;;;4933850;28;20032;-84
2021/08/03 08:28:24;;;;;;;9.60;4.18;;;21.30;93.60;;;;;;4933925;29;20035;-84
2021/08/03 08:30:50;;;;;;;7.30;4.25;;;21.30;93.50;;;;;;4929149;29;20032;-84
2021/08/03 08:33:16;;;;;;;8.27;4.18;;;21.30;93.60;;;;;;4914459;29;20492;-83
2021/08/03 08:35:42;;;;;;;10.63;4.45;;;21.30;93.30;;;;;;4929665;29;20032;-83
2021/08/03 08:38:07;;;;;;;12.55;4.80;;;21.30;93.40;;;;;;4915046;29;20031;-85
2021/08/03 08:40:33;;;;;;;28.73;5.82;;;21.30;93.40;;;;;;4914749;28;20472;-82
2021/08/03 08:42:59;;;;;;;20.10;6.07;;;21.20;93.60;;;;;;4915033;29;20046;-80
2021/08/03 08:45:25;;;;;;;12.77;5.40;;;21.20;93.00;;;;;;4914580;28;20025;-81
2021/08/03 08:47:50;;;;;;;9.50;4.78;;;21.20;93.00;;;;;;4914894;28;20403;-78
2021/08/03 08:50:22;;;;;;;14.90;5.15;;;21.20;92.90;;;;;;4914652;29;20514;-79
2021/08/03 08:52:50;;;;;;;9.98;4.90;;;21.20;92.80;;;;;;4914849;29;20024;-81
2021/08/03 08:55:16;;;;;;;9.77;6.15;;;21.20;92.90;;;;;;4914642;28;20032;-82
2021/08/03 08:57:42;;;;;;;14.20;5.90;;;21.20;92.90;;;;;;4914998;29;20534;-80
2021/08/03 09:00:10;;;;;;;10.95;5.90;;;21.10;92.80;;;;;;4916888;29;20052;-79
2021/08/03 09:02:52;;;;;;;12.32;5.70;;;21.10;93.00;;;;;;4931282;29;20063;-79
2021/08/03 09:05:27;;;;;;;11.55;5.20;;;21.20;92.90;;;;;;4932434;29;20028;-77
2021/08/03 09:07:58;;;;;;;10.80;4.40;;;21.20;92.80;;;;;;4933234;29;20036;-77
2021/08/03 09:10:32;;;;;;;9.25;4.15;;;21.30;92.60;;;;;;4933262;29;20036;-79
2021/08/03 09:13:11;;;;;;;6.60;3.78;;;21.40;92.60;;;;;;4933053;29;20031;-77
2021/08/03 09:15:39;;;;;;;11.63;4.57;;;21.40;92.60;;;;;;4931897;29;20028;-77
2021/08/03 09:18:25;;;;;;;9.15;4.13;;;21.40;92.50;;;;;;4933676;28;20042;-74
2021/08/03 09:20:50;;;;;;;;;;;21.40;92.40;;;;;;4933841;29;20030;-77
2021/08/03 09:23:16;;;;;;;8.90;4.45;;;21.50;92.40;;;;;;4932945;29;19915;-74
2021/08/03 09:25:58;;;;;;;8.93;3.70;;;21.50;92.30;;;;;;4932601;29;20032;-74
2021/08/03 09:28:24;;;;;;;7.93;3.22;;;21.50;92.40;;;;;;4932843;29;20369;-75
2021/08/03 09:30:50;;;;;;;5.50;3.33;;;21.50;92.30;;;;;;4933369;29;20028;-79
2021/08/03 09:33:25;;;;;;;7.00;3.60;;;21.60;92.30;;;;;;4932753;29;20087;-87
2021/08/03 09:35:51;;;;;;;6.65;3.30;;;21.60;92.20;;;;;;4931810;29;20360;-85
2021/08/03 09:38:19;;;;;;;9.63;4.18;;;21.60;92.20;;;;;;4932899;28;20055;-81
2021/08/03 09:40:46;;;;;;;7.75;3.47;;;21.70;92.20;;;;;;4928364;29;20036;-88
2021/08/03 09:43:14;;;;;;;5.63;3.38;;;21.70;92.20;;;;;;4914455;29;20434;-79
2021/08/03 09:45:43;;;;;;;15.27;3.55;;;21.70;92.20;;;;;;4914158;28;20119;-84
2021/08/03 09:48:12;;;;;;;8.13;2.90;;;21.70;92.20;;;;;;4913743;28;20051;-80
2021/08/03 09:50:51;;;;;;;13.05;3.25;;;21.80;92.00;;;;;;4913737;29;20020;-75
2021/08/03 09:53:43;;;;;;;11.00;3.53;;;21.80;92.30;;;;;;4913798;29;20522;-78
2021/08/03 09:56:12;;;;;;;9.98;2.85;;;21.80;92.30;;;;;;4917826;29;20035;-79
2021/08/03 09:58:51;;;;;;;6.00;3.20;;;21.90;92.20;;;;;;4913476;28;20035;-82
2021/08/03 10:01:32;;;;;;;11.75;5.45;;;21.90;92.10;;;;;;4912742;28;20106;-76
2021/08/03 10:04:03;;;;;;;57.63;26.48;;;21.90;92.10;;;;;;4930786;29;20553;-83
2021/08/03 10:06:30;;;;;;;57.90;26.92;;;22.00;92.20;;;;;;4932331;29;20035;-77
2021/08/03 10:08:56;;;;;;;59.13;25.27;;;22.00;92.10;;;;;;4932709;28;20024;-86
2021/08/03 10:11:22;;;;;;;54.03;23.33;;;22.00;92.20;;;;;;4932428;28;20111;-86
2021/08/03 10:13:50;;;;;;;55.53;24.65;;;22.10;92.10;;;;;;4931348;29;20474;-80
2021/08/03 10:16:16;;;;;;;47.90;23.83;;;22.10;92.30;;;;;;4932444;29;20051;-85
2021/08/03 10:18:48;;;;;;;53.17;26.70;;;22.20;92.60;;;;;;4931160;29;20130;-83
2021/08/03 10:21:23;;;;;;;47.42;23.50;;;22.20;92.80;;;;;;4932750;29;20484;-78
2021/08/03 10:23:50;;;;;;;47.75;23.77;;;22.30;93.00;;;;;;4932283;29;20158;-76
2021/08/03 10:26:16;;;;;;;48.42;24.52;;;22.20;92.70;;;;;;4930508;29;20024;-76
2021/08/03 10:28:42;;;;;;;44.10;21.83;;;22.30;92.90;;;;;;4932593;28;20028;-74
2021/08/03 10:31:38;;;;;;;46.40;22.00;;;22.30;92.70;;;;;;4943345;28;20038;-82
2021/08/03 10:34:04;;;;;;;41.20;20.25;;;22.30;93.10;;;;;;5011599;28;20034;-80
2021/08/03 10:36:41;;;;;;;47.05;21.27;;;22.40;92.60;;;;;;5012072;28;20066;-78
2021/08/03 10:39:12;;;;;;;43.35;19.08;;;22.40;92.90;;;;;;4946959;28;20070;-84
2021/08/03 10:42:01;;;;;;;44.75;19.23;;;22.40;92.70;;;;;;4931432;29;20067;-78
2021/08/03 10:44:50;;;;;;;34.55;17.00;;;22.50;92.80;;;;;;4938842;28;20055;-76
2021/08/03 10:47:46;;;;;;;34.17;16.80;;;22.50;92.60;;;;;;4931632;29;20024;-85
2021/08/03 10:50:32;;;;;;;30.40;14.80;;;22.50;92.40;;;;;;4923313;29;20051;-77
2021/08/03 10:53:04;;;;;;;;;;;22.60;92.30;;;;;;4931190;29;20036;-77
2021/08/03 10:55:57;;;;;;;28.00;13.93;;;22.60;92.30;;;;;;4931790;29;19914;-83
2021/08/03 10:58:25;;;;;;;27.73;13.68;;;22.70;92.40;;;;;;4931041;29;20028;-76
2021/08/03 11:00:56;;;;;;;27.38;11.35;;;22.70;92.20;;;;;;4933108;29;20050;-83
2021/08/03 11:03:39;;;;;;;28.13;12.27;;;22.70;92.20;;;;;;4943976;29;20107;-79
2021/08/03 11:06:10;;;;;;;26.25;11.27;;;22.70;92.30;;;;;;4935456;28;20035;-82
2021/08/03 11:08:48;;;;;;;20.88;10.40;;;22.70;91.70;;;;;;4930806;29;20105;-81
2021/08/03 11:11:24;;;;;;;15.35;8.90;;;22.60;90.20;;;;;;4926814;29;20047;-81
2021/08/03 11:14:04;;;;;;;15.43;8.35;;;22.60;89.20;;;;;;4912455;29;20507;-81
2021/08/03 11:16:30;;;;;;;18.10;7.60;;;22.50;88.10;;;;;;4912462;29;20020;-76
2021/08/03 11:18:58;;;;;;;12.63;7.07;;;22.50;86.60;;;;;;4912767;28;20059;-77
2021/08/03 11:21:47;;;;;;;11.20;5.68;;;22.50;85.90;;;;;;4913823;29;20024;-77
2021/08/03 11:24:21;;;;;;;13.35;6.10;;;22.50;85.20;;;;;;4931543;29;20377;-79
2021/08/03 11:26:55;;;;;;;8.60;5.70;;;22.50;84.50;;;;;;4931762;29;20039;-80
2021/08/03 11:29:26;;;;;;;12.35;5.13;;;22.60;84.80;;;;;;4930803;29;20032;-78
2021/08/03 11:31:57;;;;;;;8.05;4.18;;;22.60;84.70;;;;;;4931375;29;20439;-78
2021/08/03 11:34:38;;;;;;;7.25;3.85;;;22.60;84.80;;;;;;4931045;28;20036;-83
2021/08/03 11:37:06;;;;;;;12.80;4.80;;;22.70;85.20;;;;;;4931585;29;20023;-80
2021/08/03 11:39:42;;;;;;;6.40;4.20;;;22.70;85.30;;;;;;4928942;29;20047;-81
2021/08/03 11:42:10;;;;;;;11.75;4.30;;;22.70;85.50;;;;;;4929980;29;20115;-80
2021/08/03 11:44:37;;;;;;;7.32;3.92;;;22.80;85.80;;;;;;4931057;29;20047;-82
2021/08/03 11:47:05;;;;;;;10.70;3.60;;;22.80;85.90;;;;;;4938266;28;20027;-82
2021/08/03 11:49:34;;;;;;;5.43;3.25;;;22.80;86.00;;;;;;4935699;28;20487;-78
2021/08/03 11:52:11;;;;;;;7.60;3.42;;;22.90;86.00;;;;;;4931333;28;20077;-80
2021/08/03 11:54:37;;;;;;;7.82;3.15;;;22.90;86.50;;;;;;4930956;29;20434;-81
2021/08/03 11:57:41;;;;;;;9.05;3.35;;;22.90;86.70;;;;;;4934355;29;20082;-80
2021/08/03 12:00:24;;;;;;;7.82;2.92;;;23.00;86.80;;;;;;4929573;29;20487;-78
2021/08/03 12:02:52;;;;;;;9.25;3.25;;;23.00;86.80;;;;;;4930712;29;20031;-81
2021/08/03 12:05:23;;;;;;;8.48;3.42;;;23.00;87.10;;;;;;4930826;29;20138;-80
2021/08/03 12:07:57;;;;;;;7.38;3.00;;;23.00;87.70;;;;;;4930760;29;20040;-82
2021/08/03 12:10:26;;;;;;;7.05;3.70;;;23.00;87.70;;;;;;4931136;29;20024;-78
2021/08/03 12:12:52;;;;;;;6.78;3.22;;;23.00;87.70;;;;;;4931164;28;20082;-77
2021/08/03 12:15:21;;;;;;;7.72;3.00;;;23.10;87.40;;;;;;4929744;29;20428;-76
2021/08/03 12:17:48;;;;;;;4.88;2.40;;;23.10;87.60;;;;;;4930597;29;20082;-77
2021/08/03 12:20:25;;;;;;;8.98;2.65;;;23.20;87.40;;;;;;4929637;28;20048;-77
2021/08/03 12:22:52;;;;;;;7.78;3.05;;;23.20;87.10;;;;;;4928962;29;20158;-78
2021/08/03 12:25:18;;;;;;;6.57;2.85;;;23.20;87.10;;;;;;4929012;28;20495;-77
2021/08/03 12:27:45;;;;;;;6.72;1.92;;;23.20;87.20;;;;;;4929428;29;20103;-76
2021/08/03 12:30:40;;;;;;;8.23;2.65;;;23.20;86.40;;;;;;4929444;29;20028;-75
2021/08/03 12:33:07;;;;;;;4.22;2.53;;;23.30;86.60;;;;;;4922875;28;20043;-76
2021/08/03 12:35:38;;;;;;;4.90;2.65;;;23.30;86.30;;;;;;4928951;29;20024;-77
2021/08/03 12:38:17;;;;;;;9.38;2.80;;;23.30;86.30;;;;;;4929231;29;20392;-78
2021/08/03 12:40:44;;;;;;;5.95;3.00;;;23.30;86.30;;;;;;4928660;29;20103;-80
2021/08/03 12:43:10;;;;;;;6.03;2.85;;;23.40;86.50;;;;;;4932553;29;20032;-79
2021/08/03 12:45:38;;;;;;;6.25;2.50;;;23.50;86.90;;;;;;4931966;29;20024;-82
2021/08/03 12:48:07;;;;;;;5.00;2.40;;;23.50;86.60;;;;;;4932231;28;20016;-82
2021/08/03 12:50:47;;;;;;;5.80;2.65;;;23.50;86.70;;;;;;4931496;29;20032;-81
2021/08/03 12:53:23;;;;;;;7.10;2.40;;;23.50;86.80;;;;;;4931029;29;20024;-80
2021/08/03 12:56:06;;;;;;;6.10;2.95;;;23.50;87.50;;;;;;4932267;29;20019;-81
2021/08/03 12:58:49;;;;;;;5.85;2.40;;;23.60;86.80;;;;;;4931200;29;20039;-80
2021/08/03 13:01:19;;;;;;;6.15;2.50;;;23.60;86.50;;;;;;4932076;29;20031;-77